Time;durP1;ratioP1;P1;durP2;ratioP2;P2;SDS_P1;SDS_P2;PMS_P1;PMS_P2;Temp;Humidity;BMP_temperature;BMP_pressure;BME280_temperature;BME280_humidity;BME280_pressure;Samples;Min_cycle;Max_cycle;Signal;HPM_P1;HPM_P2
2023/05/25 00:00:27;;;;;;;;;;;17.90;67.70;;;;;;5059416;28;20007;-82
2023/05/25 00:02:53;;;;;;;;;;;17.90;67.70;;;;;;5076218;28;19908;-81
2023/05/25 00:05:19;;;;;;;;;;;17.90;67.80;;;;;;5060475;28;20198;-81
2023/05/25 00:07:45;;;;;;;;;;;17.90;67.80;;;;;;5059605;28;19917;-81
2023/05/25 00:10:11;;;;;;;;;;;17.90;67.80;;;;;;5059623;28;19912;-81
2023/05/25 00:12:37;;;;;;;;;;;17.90;67.80;;;;;;5059005;28;19923;-81
2023/05/25 00:15:04;;;;;;;;;;;17.90;67.80;;;;;;5059324;28;19999;-81
2023/05/25 00:17:30;;;;;;;;;;;17.90;67.90;;;;;;5059195;28;20217;-81
2023/05/25 00:19:57;;;;;;;;;;;17.90;67.80;;;;;;5075760;28;20255;-81
2023/05/25 00:22:23;;;;;;;;;;;17.90;67.80;;;;;;5058991;28;19919;-81
2023/05/25 00:24:48;;;;;;;;;;;17.80;67.80;;;;;;5059889;28;19912;-81
2023/05/25 00:27:14;;;;;;;;;;;17.80;67.80;;;;;;5058683;28;19944;-81
2023/05/25 00:29:39;;;;;;;;;;;17.80;67.80;;;;;;5058828;28;19919;-81
2023/05/25 00:32:05;;;;;;;;;;;17.80;67.80;;;;;;5056919;28;20024;-81
2023/05/25 00:34:31;;;;;;;;;;;17.80;67.80;;;;;;5057483;28;19919;-82
2023/05/25 00:36:56;;;;;;;;;;;17.80;67.80;;;;;;5057150;28;19909;-81
2023/05/25 00:39:22;;;;;;;;;;;17.80;67.80;;;;;;5058868;28;20189;-81
2023/05/25 00:41:48;;;;;;;;;;;17.80;67.70;;;;;;5058506;28;19974;-82
2023/05/25 00:44:14;;;;;;;;;;;17.80;67.80;;;;;;5076486;28;19943;-81
2023/05/25 00:46:44;;;;;;;;;;;17.80;67.80;;;;;;5060468;28;19912;-80
2023/05/25 00:49:12;;;;;;;;;;;17.80;67.80;;;;;;5061474;28;19909;-79
2023/05/25 00:51:38;;;;;;;;;;;17.80;67.80;;;;;;5077756;28;19993;-79
2023/05/25 00:54:05;;;;;;;;;;;17.70;67.70;;;;;;5060191;28;19916;-79
2023/05/25 00:56:31;;;;;;;;;;;17.70;67.60;;;;;;5058830;28;19909;-79
2023/05/25 00:59:02;;;;;;;;;;;17.70;67.70;;;;;;5057682;28;20069;-79
2023/05/25 01:01:32;;;;;;;;;;;17.70;67.70;;;;;;5075419;28;20011;-79
2023/05/25 01:03:58;;;;;;;;;;;17.70;67.70;;;;;;5058538;28;20258;-79
2023/05/25 01:06:25;;;;;;;;;;;17.70;67.70;;;;;;5076856;28;19976;-79
2023/05/25 01:08:52;;;;;;;;;;;17.70;68.30;;;;;;5058778;28;19927;-79
2023/05/25 01:11:27;;;;;;;;;;;17.70;67.80;;;;;;5059191;28;19924;-79
2023/05/25 01:13:53;;;;;;;;;;;17.70;67.80;;;;;;5059277;28;19981;-79
2023/05/25 01:16:22;;;;;;;;;;;17.60;67.70;;;;;;5059987;28;19943;-79
2023/05/25 01:18:47;;;;;;;;;;;17.60;67.80;;;;;;5059555;28;19908;-79
2023/05/25 01:21:19;;;;;;;;;;;17.60;67.80;;;;;;5060554;28;19999;-79
2023/05/25 01:24:03;;;;;;;;;;;17.60;67.80;;;;;;5060084;28;20305;-82
2023/05/25 01:26:32;;;;;;;;;;;17.60;67.80;;;;;;5074142;28;19908;-82
2023/05/25 01:29:00;;;;;;;;;;;17.60;67.80;;;;;;5076196;28;19943;-82
2023/05/25 01:31:26;;;;;;;;;;;17.60;67.80;;;;;;5059151;28;19920;-82
2023/05/25 01:33:52;;;;;;;;;;;17.60;67.80;;;;;;5057867;28;19923;-82
2023/05/25 01:36:18;;;;;;;;;;;17.50;67.80;;;;;;5056774;28;19916;-82
2023/05/25 01:38:44;;;;;;;;;;;17.50;67.80;;;;;;5058120;28;20003;-81
2023/05/25 01:41:10;;;;;;;;;;;17.50;67.80;;;;;;5057726;28;20003;-82
2023/05/25 01:43:35;;;;;;;;;;;17.50;67.90;;;;;;5057946;28;20285;-82
2023/05/25 01:46:06;;;;;;;;;;;17.50;67.90;;;;;;5062748;28;19951;-82
2023/05/25 01:48:39;;;;;;;;;;;17.50;68.00;;;;;;5063271;28;19908;-81
2023/05/25 01:51:18;;;;;;;;;;;17.50;67.90;;;;;;5062547;28;19909;-81
2023/05/25 01:53:46;;;;;;;;;;;17.50;67.90;;;;;;5061956;28;19920;-82
2023/05/25 01:56:12;;;;;;;;;;;17.40;67.90;;;;;;5062092;28;19908;-82
2023/05/25 01:58:42;;;;;;;;;;;17.40;67.90;;;;;;5061217;28;19908;-82
2023/05/25 02:01:08;;;;;;;;;;;17.40;67.90;;;;;;5079962;28;20215;-82
2023/05/25 02:03:35;;;;;;;;;;;17.40;67.90;;;;;;5080671;28;19908;-82
2023/05/25 02:06:00;;;;;;;;;;;17.40;68.00;;;;;;5082365;28;19999;-82
2023/05/25 02:08:26;;;;;;;;;;;17.40;68.00;;;;;;5065526;28;20199;-82
2023/05/25 02:10:51;;;;;;;;;;;17.40;67.90;;;;;;5082605;28;19909;-81
2023/05/25 02:13:17;;;;;;;;;;;17.40;68.00;;;;;;5082418;28;19913;-81
2023/05/25 02:15:43;;;;;;;;;;;17.40;68.00;;;;;;5065153;28;19944;-81
2023/05/25 02:18:08;;;;;;;;;;;17.30;68.00;;;;;;5064526;28;19909;-81
2023/05/25 02:20:35;;;;;;;;;;;17.30;68.00;;;;;;5065572;28;20003;-82
2023/05/25 02:23:01;;;;;;;;;;;17.30;68.00;;;;;;5083118;28;20285;-82
2023/05/25 02:25:26;;;;;;;;;;;17.30;68.10;;;;;;5082889;28;19916;-81
2023/05/25 02:27:52;;;;;;;;;;;17.30;68.10;;;;;;5065405;28;19973;-82
2023/05/25 02:30:17;;;;;;;;;;;17.30;68.10;;;;;;5066054;28;19930;-82
2023/05/25 02:32:43;;;;;;;;;;;17.30;68.10;;;;;;5064019;28;20250;-82
2023/05/25 02:35:09;;;;;;;;;;;17.30;68.10;;;;;;5065299;28;20421;-82
2023/05/25 02:37:35;;;;;;;;;;;17.30;68.10;;;;;;5065326;28;19909;-82
2023/05/25 02:40:00;;;;;;;;;;;17.30;68.20;;;;;;5082573;28;20190;-82
2023/05/25 02:42:26;;;;;;;;;;;17.30;68.20;;;;;;5065307;28;20278;-81
2023/05/25 02:44:51;;;;;;;;;;;17.20;68.10;;;;;;5081950;28;20213;-81
2023/05/25 02:47:17;;;;;;;;;;;17.20;68.10;;;;;;5065194;28;19908;-82
2023/05/25 02:49:43;;;;;;;;;;;17.20;68.10;;;;;;5082287;28;19908;-82
2023/05/25 02:52:09;;;;;;;;;;;17.20;68.10;;;;;;5082456;28;19959;-81
2023/05/25 02:54:35;;;;;;;;;;;17.20;68.20;;;;;;5064618;28;19915;-81
2023/05/25 02:57:02;;;;;;;;;;;17.20;68.10;;;;;;5061073;28;19908;-82
2023/05/25 02:59:27;;;;;;;;;;;17.20;68.20;;;;;;5060401;28;19912;-82
2023/05/25 03:01:53;;;;;;;;;;;17.20;68.20;;;;;;5060717;28;20333;-82
2023/05/25 03:04:19;;;;;;;;;;;17.20;68.20;;;;;;5061699;28;19942;-82
2023/05/25 03:06:45;;;;;;;;;;;17.10;68.10;;;;;;5061652;28;19919;-82
2023/05/25 03:09:11;;;;;;;;;;;17.10;68.10;;;;;;5060954;28;19993;-82
2023/05/25 03:11:36;;;;;;;;;;;17.10;68.30;;;;;;5059943;28;20241;-82
2023/05/25 03:14:02;;;;;;;;;;;17.10;68.10;;;;;;5059955;28;20244;-82
2023/05/25 03:16:28;;;;;;;;;;;17.10;68.10;;;;;;5077206;28;20301;-82
2023/05/25 03:18:53;;;;;;;;;;;17.10;68.10;;;;;;5077388;28;19916;-82
2023/05/25 03:21:21;;;;;;;;;;;17.10;68.10;;;;;;5078614;28;19971;-81
2023/05/25 03:23:47;;;;;;;;;;;17.10;68.10;;;;;;5060681;28;19969;-82
2023/05/25 03:26:12;;;;;;;;;;;17.10;68.20;;;;;;5060428;28;19909;-82
2023/05/25 03:28:38;;;;;;;;;;;17.00;68.10;;;;;;5060255;28;20314;-82
2023/05/25 03:31:04;;;;;;;;;;;17.00;68.10;;;;;;5078490;28;19913;-82
2023/05/25 03:33:29;;;;;;;;;;;17.00;68.20;;;;;;5059721;28;19916;-82
2023/05/25 03:35:55;;;;;;;;;;;17.00;68.20;;;;;;5060058;28;19982;-82
2023/05/25 03:38:21;;;;;;;;;;;17.00;68.20;;;;;;5058179;28;20349;-82
2023/05/25 03:40:46;;;;;;;;;;;17.00;68.20;;;;;;5059007;28;19995;-82
2023/05/25 03:43:12;;;;;;;;;;;17.00;68.10;;;;;;5076121;28;19923;-81
2023/05/25 03:45:37;;;;;;;;;;;17.00;68.20;;;;;;5076945;28;19962;-82
2023/05/25 03:48:03;;;;;;;;;;;17.00;68.20;;;;;;5058369;28;19930;-82
2023/05/25 03:50:29;;;;;;;;;;;17.00;68.80;;;;;;5058096;28;19916;-81
2023/05/25 03:52:54;;;;;;;;;;;17.00;68.10;;;;;;5075334;28;19912;-82
2023/05/25 03:55:21;;;;;;;;;;;17.00;68.20;;;;;;5074563;28;19908;-82
2023/05/25 03:57:47;;;;;;;;;;;17.00;68.20;;;;;;5059137;28;19909;-81
2023/05/25 04:00:13;;;;;;;;;;;17.00;68.20;;;;;;5058616;28;20194;-82
2023/05/25 04:02:38;;;;;;;;;;;17.00;68.20;;;;;;5058587;28;19931;-82
2023/05/25 04:05:04;;;;;;;;;;;17.00;68.10;;;;;;5058873;28;19912;-82
2023/05/25 04:07:30;;;;;;;;;;;17.00;68.10;;;;;;5053950;28;19978;-82
2023/05/25 04:09:58;;;;;;;;;;;17.00;68.10;;;;;;5055791;28;19909;-82
2023/05/25 04:12:24;;;;;;;;;;;17.00;68.10;;;;;;5056832;28;19912;-82
2023/05/25 04:14:50;;;;;;;;;;;17.00;68.00;;;;;;5073002;28;19912;-82
2023/05/25 04:17:16;;;;;;;;;;;17.00;68.00;;;;;;5057569;28;20233;-82
2023/05/25 04:19:41;;;;;;;;;;;17.00;68.00;;;;;;5057315;28;19915;-82
2023/05/25 04:22:07;;;;;;;;;;;17.00;68.00;;;;;;5074360;28;19908;-82
2023/05/25 04:24:33;;;;;;;;;;;17.00;67.90;;;;;;5057268;28;20167;-82
2023/05/25 04:27:00;;;;;;;;;;;17.00;67.90;;;;;;5057698;28;19919;-81
2023/05/25 04:29:27;;;;;;;;;;;17.00;67.80;;;;;;5056233;28;19975;-82
2023/05/25 04:31:53;;;;;;;;;;;17.00;67.60;;;;;;5054864;28;20293;-82
2023/05/25 04:34:20;;;;;;;;;;;17.00;67.70;;;;;;5052915;28;19908;-81
2023/05/25 04:36:46;;;;;;;;;;;17.00;67.60;;;;;;5053437;28;20259;-81
2023/05/25 04:39:12;;;;;;;;;;;17.10;67.50;;;;;;5057046;28;19959;-82
2023/05/25 04:41:38;;;;;;;;;;;17.10;67.40;;;;;;5060875;28;19959;-82
2023/05/25 04:44:03;;;;;;;;;;;17.10;67.40;;;;;;5056454;28;20066;-82
2023/05/25 04:46:30;;;;;;;;;;;17.10;67.20;;;;;;5072426;28;20037;-81
2023/05/25 04:48:56;;;;;;;;;;;17.10;67.10;;;;;;5070048;28;20233;-81
2023/05/25 04:51:21;;;;;;;;;;;17.10;67.10;;;;;;5051730;28;20336;-81
2023/05/25 04:53:49;;;;;;;;;;;17.10;67.00;;;;;;5050765;28;20000;-82
2023/05/25 04:56:15;;;;;;;;;;;17.20;66.80;;;;;;5052436;28;19978;-81
2023/05/25 04:58:41;;;;;;;;;;;17.20;66.80;;;;;;5051179;28;20279;-81
2023/05/25 05:01:06;;;;;;;;;;;17.20;66.60;;;;;;5052241;28;20108;-82
2023/05/25 05:03:32;;;;;;;;;;;17.20;66.40;;;;;;5066932;28;20008;-81
2023/05/25 05:05:58;;;;;;;;;;;17.30;66.40;;;;;;5068860;28;19909;-81
2023/05/25 05:08:23;;;;;;;;;;;17.30;66.30;;;;;;5049384;28;20261;-81
2023/05/25 05:10:49;;;;;;;;;;;17.30;66.10;;;;;;5050052;28;20145;-81
2023/05/25 05:13:14;;;;;;;;;;;17.40;66.00;;;;;;5068839;28;19960;-81
2023/05/25 05:15:40;;;;;;;;;;;17.40;65.70;;;;;;5051910;28;19920;-81
2023/05/25 05:18:07;;;;;;;;;;;17.40;65.50;;;;;;5050967;28;19958;-81
2023/05/25 05:20:33;;;;;;;;;;;17.50;65.40;;;;;;5051717;28;19914;-81
2023/05/25 05:22:58;;;;;;;;;;;17.50;65.30;;;;;;5051225;28;19909;-81
2023/05/25 05:25:24;;;;;;;;;;;17.60;65.30;;;;;;5049882;28;19952;-81
2023/05/25 05:27:49;;;;;;;;;;;17.60;65.00;;;;;;5067691;28;20068;-82
2023/05/25 05:30:39;;;;;;;;;;;17.60;64.50;;;;;;5050786;28;20045;-82
2023/05/25 05:33:05;;;;;;;;;;;17.70;64.30;;;;;;5064200;28;19912;-82
2023/05/25 05:35:31;;;;;;;;;;;17.80;64.10;;;;;;5047636;28;19908;-81
2023/05/25 05:37:56;;;;;;;;;;;17.90;63.70;;;;;;5048055;28;19908;-81
2023/05/25 05:40:22;;;;;;;;;;;17.90;63.70;;;;;;5046311;28;19909;-81
2023/05/25 05:42:48;;;;;;;;;;;18.00;63.50;;;;;;5045570;28;20078;-81
2023/05/25 05:45:14;;;;;;;;;;;18.10;64.00;;;;;;5045871;28;19908;-81
2023/05/25 05:47:39;;;;;;;;;;;18.20;63.30;;;;;;5065260;28;19912;-81
2023/05/25 05:50:05;;;;;;;;;;;18.20;63.00;;;;;;5046976;28;20034;-81
2023/05/25 05:52:31;;;;;;;;;;;18.30;63.50;;;;;;5066056;28;20068;-81
2023/05/25 05:54:56;;;;;;;;;;;18.30;63.00;;;;;;5046236;28;19970;-81
2023/05/25 05:57:22;;;;;;;;;;;18.40;63.00;;;;;;5060820;28;20099;-82
2023/05/25 05:59:48;;;;;;;;;;;18.40;62.40;;;;;;5044821;28;20262;-81
2023/05/25 06:02:13;;;;;;;;;;;18.40;62.20;;;;;;5064068;28;19908;-82
2023/05/25 06:04:39;;;;;;;;;;;18.40;62.20;;;;;;5063559;28;19955;-81
2023/05/25 06:07:04;;;;;;;;;;;18.50;61.80;;;;;;5063059;28;19916;-82
2023/05/25 06:09:30;;;;;;;;;;;18.60;61.50;;;;;;5044793;28;19921;-81
2023/05/25 06:11:55;;;;;;;;;;;18.60;60.90;;;;;;5063070;28;19916;-81
2023/05/25 06:14:21;;;;;;;;;;;18.70;60.60;;;;;;5066235;28;19909;-81
2023/05/25 06:16:47;;;;;;;;;;;18.80;60.40;;;;;;5063493;28;19956;-81
2023/05/25 06:19:13;;;;;;;;;;;18.90;60.10;;;;;;5066478;28;19908;-82
2023/05/25 06:21:38;;;;;;;;;;;18.90;59.80;;;;;;5068050;28;20235;-82
2023/05/25 06:24:04;;;;;;;;;;;19.00;59.70;;;;;;5048056;28;20313;-82
2023/05/25 06:26:31;;;;;;;;;;;19.10;59.90;;;;;;5066047;28;19919;-82
2023/05/25 06:28:56;;;;;;;;;;;19.20;59.40;;;;;;5045980;28;20175;-82
2023/05/25 06:31:22;;;;;;;;;;;19.30;59.50;;;;;;5048345;28;20108;-82
2023/05/25 06:33:47;;;;;;;;;;;19.50;59.10;;;;;;5051539;28;19991;-80
2023/05/25 06:36:14;;;;;;;;;;;19.50;58.60;;;;;;5054794;28;19963;-79
2023/05/25 06:38:39;;;;;;;;;;;19.60;58.70;;;;;;5056908;28;19909;-80
2023/05/25 06:41:06;;;;;;;;;;;19.70;58.50;;;;;;5055272;28;20266;-79
2023/05/25 06:43:31;;;;;;;;;;;19.90;58.40;;;;;;5069752;28;19908;-79
2023/05/25 06:45:57;;;;;;;;;;;20.00;58.20;;;;;;5071254;28;19919;-80
2023/05/25 06:48:23;;;;;;;;;;;20.20;57.90;;;;;;5053910;28;19909;-79
2023/05/25 06:50:49;;;;;;;;;;;20.30;57.60;;;;;;5051605;28;19908;-81
2023/05/25 06:53:14;;;;;;;;;;;20.40;57.30;;;;;;5052873;28;19913;-81
2023/05/25 06:55:40;;;;;;;;;;;20.50;57.00;;;;;;5051841;28;20220;-81
2023/05/25 06:58:05;;;;;;;;;;;20.70;56.70;;;;;;5070216;28;19908;-81
2023/05/25 07:00:31;;;;;;;;;;;20.80;56.40;;;;;;5052625;28;19998;-81
2023/05/25 07:02:57;;;;;;;;;;;20.80;56.30;;;;;;5051584;28;19974;-81
2023/05/25 07:05:22;;;;;;;;;;;20.80;56.30;;;;;;5070922;28;19909;-81
2023/05/25 07:07:48;;;;;;;;;;;20.80;56.30;;;;;;5047094;28;19921;-81
2023/05/25 07:10:14;;;;;;;;;;;20.80;56.10;;;;;;5033233;28;19936;-81
2023/05/25 07:12:39;;;;;;;;;;;20.80;56.10;;;;;;5032266;28;19932;-81
2023/05/25 07:15:05;;;;;;;;;;;20.70;56.10;;;;;;5032989;28;20157;-81
2023/05/25 07:17:31;;;;;;;;;;;20.80;56.20;;;;;;5032125;28;20321;-81
2023/05/25 07:19:56;;;;;;;;;;;20.90;56.10;;;;;;5033069;28;20210;-81
2023/05/25 07:22:22;;;;;;;;;;;21.10;55.70;;;;;;5049263;28;19919;-81
2023/05/25 07:24:48;;;;;;;;;;;21.20;55.40;;;;;;5032577;28;19920;-82
2023/05/25 07:27:15;;;;;;;;;;;21.20;55.40;;;;;;5051633;28;20008;-81
2023/05/25 07:29:40;;;;;;;;;;;21.40;55.20;;;;;;5037087;28;19952;-81
2023/05/25 07:32:06;;;;;;;;;;;21.80;54.70;;;;;;5031862;28;20185;-81
2023/05/25 07:34:37;;;;;;;;;;;21.80;54.40;;;;;;5050342;28;19909;-81
2023/05/25 07:37:02;;;;;;;;;;;21.80;54.30;;;;;;5050132;28;20011;-81
2023/05/25 07:39:28;;;;;;;;;;;21.70;54.40;;;;;;5032893;28;20007;-81
2023/05/25 07:41:53;;;;;;;;;;;21.60;54.40;;;;;;5050593;28;19909;-81
2023/05/25 07:44:19;;;;;;;;;;;21.30;54.60;;;;;;5030409;28;20171;-81
2023/05/25 07:46:45;;;;;;;;;;;21.20;54.90;;;;;;5047975;28;20267;-81
2023/05/25 07:49:14;;;;;;;;;;;21.10;55.10;;;;;;5032258;28;19920;-82
2023/05/25 07:51:46;;;;;;;;;;;21.00;55.30;;;;;;5031073;28;19927;-82
2023/05/25 07:54:12;;;;;;;;;;;20.80;55.40;;;;;;5032827;28;20278;-81
2023/05/25 07:56:37;;;;;;;;;;;20.80;55.60;;;;;;5050357;28;19982;-81
2023/05/25 07:59:03;;;;;;;;;;;20.70;55.70;;;;;;5030585;28;19913;-81
2023/05/25 08:01:29;;;;;;;;;;;20.70;55.80;;;;;;5020150;28;19913;-81
2023/05/25 08:03:56;;;;;;;;;;;20.60;55.90;;;;;;5031916;28;19917;-81
2023/05/25 08:06:22;;;;;;;;;;;20.60;56.00;;;;;;5034534;28;19971;-81
2023/05/25 08:08:48;;;;;;;;;;;20.50;56.10;;;;;;5034174;28;19979;-81
2023/05/25 08:11:15;;;;;;;;;;;20.40;56.20;;;;;;5032840;28;20135;-81
2023/05/25 08:13:41;;;;;;;;;;;20.30;56.40;;;;;;5049530;28;20050;-81
2023/05/25 08:16:07;;;;;;;;;;;20.30;56.50;;;;;;5031505;28;19998;-81
2023/05/25 08:18:33;;;;;;;;;;;20.20;56.60;;;;;;5030651;28;19952;-81
2023/05/25 08:20:59;;;;;;;;;;;20.20;56.70;;;;;;5029578;28;20270;-81
2023/05/25 08:23:24;;;;;;;;;;;20.20;56.90;;;;;;5045778;28;19923;-81
2023/05/25 08:25:50;;;;;;;;;;;20.10;57.00;;;;;;5031352;28;19913;-82
2023/05/25 08:28:15;;;;;;;;;;;20.10;57.10;;;;;;5030989;28;20348;-81
2023/05/25 08:30:42;;;;;;;;;;;20.10;57.10;;;;;;5028560;28;19909;-82
2023/05/25 08:33:09;;;;;;;;;;;20.00;57.20;;;;;;5047380;28;19919;-82
2023/05/25 08:35:38;;;;;;;;;;;20.00;57.20;;;;;;5048524;28;19920;-81
2023/05/25 08:38:03;;;;;;;;;;;20.00;57.30;;;;;;5031982;28;19916;-81
2023/05/25 08:40:29;;;;;;;;;;;20.00;57.40;;;;;;5047831;28;19913;-81
2023/05/25 08:42:54;;;;;;;;;;;20.00;57.40;;;;;;5028427;28;19998;-81
2023/05/25 08:45:20;;;;;;;;;;;20.00;57.90;;;;;;5029491;28;20140;-81
2023/05/25 08:47:47;;;;;;;;;;;20.00;57.40;;;;;;5012865;28;20183;-82
2023/05/25 08:50:14;;;;;;;;;;;20.00;57.40;;;;;;5028094;28;19920;-82
2023/05/25 08:52:41;;;;;;;;;;;20.00;57.50;;;;;;5029662;28;19931;-81
2023/05/25 08:55:07;;;;;;;;;;;20.00;57.60;;;;;;5029041;28;20248;-81
2023/05/25 08:57:45;;;;;;;;;;;20.00;57.60;;;;;;5029950;28;20348;-81
2023/05/25 09:00:12;;;;;;;;;;;19.90;57.60;;;;;;5029131;28;19994;-82
2023/05/25 09:02:43;;;;;;;;;;;19.90;57.70;;;;;;5026303;28;20141;-81
2023/05/25 09:05:09;;;;;;;;;;;19.90;57.80;;;;;;5029700;28;19986;-81
2023/05/25 09:07:35;;;;;;;;;;;19.90;57.70;;;;;;5051018;28;20240;-81
2023/05/25 09:10:01;;;;;;;;;;;20.00;57.70;;;;;;5068324;28;19917;-81
2023/05/25 09:12:30;;;;;;;;;;;20.00;57.60;;;;;;5050782;28;19922;-81
2023/05/25 09:14:59;;;;;;;;;;;20.00;57.60;;;;;;5050115;28;19917;-82
2023/05/25 09:17:25;;;;;;;;;;;20.00;57.60;;;;;;5049840;28;19916;-82
2023/05/25 09:19:51;;;;;;;;;;;20.20;57.60;;;;;;5067083;28;20210;-81
2023/05/25 09:22:17;;;;;;;;;;;20.20;57.30;;;;;;5065642;28;20259;-81
2023/05/25 09:24:43;;;;;;;;;;;20.20;57.40;;;;;;5050100;28;19909;-82
2023/05/25 09:27:16;;;;;;;;;;;20.20;57.30;;;;;;5051792;28;20423;-81
2023/05/25 09:29:41;;;;;;;;;;;20.20;57.30;;;;;;5067175;28;20118;-82
2023/05/25 09:32:07;;;;;;;;;;;20.30;57.20;;;;;;5050484;28;20312;-81
2023/05/25 09:34:35;;;;;;;;;;;20.30;57.10;;;;;;5066230;28;20101;-81
2023/05/25 09:37:11;;;;;;;;;;;20.30;57.10;;;;;;5048732;28;19908;-81
2023/05/25 09:39:36;;;;;;;;;;;20.20;57.20;;;;;;5048925;28;19973;-82
2023/05/25 09:42:02;;;;;;;;;;;20.20;57.20;;;;;;5068520;28;19916;-82
2023/05/25 09:44:28;;;;;;;;;;;20.30;57.20;;;;;;5049065;28;19915;-82
2023/05/25 09:46:53;;;;;;;;;;;20.50;57.10;;;;;;5067529;28;20341;-82
2023/05/25 09:49:19;;;;;;;;;;;20.50;56.90;;;;;;5050543;28;20262;-82
2023/05/25 09:51:45;;;;;;;;;;;20.40;56.90;;;;;;5049177;28;19919;-81
2023/05/25 09:54:10;;;;;;;;;;;20.40;57.00;;;;;;5049606;28;20205;-81
2023/05/25 09:56:36;;;;;;;;;;;20.30;57.10;;;;;;5066422;28;19994;-81
2023/05/25 09:59:02;;;;;;;;;;;20.20;57.20;;;;;;5068168;28;19912;-82
2023/05/25 10:01:27;;;;;;;;;;;20.20;57.30;;;;;;5050151;28;20229;-82
2023/05/25 10:03:55;;;;;;;;;;;20.20;57.40;;;;;;5048567;28;20179;-81
2023/05/25 10:06:32;;;;;;;;;;;20.20;57.40;;;;;;5053202;28;20509;-81
2023/05/25 10:08:57;;;;;;;;;;;20.20;57.50;;;;;;5034724;28;20176;-81
2023/05/25 10:11:23;;;;;;;;;;;20.10;57.60;;;;;;5015241;28;20062;-81
2023/05/25 10:13:51;;;;;;;;;;;20.10;57.70;;;;;;5018583;28;20267;-81
2023/05/25 10:16:20;;;;;;;;;;;20.10;57.70;;;;;;5015779;28;20396;-81
2023/05/25 10:18:48;;;;;;;;;;;20.00;57.80;;;;;;5030072;28;19983;-81
2023/05/25 10:21:14;;;;;;;;;;;20.00;57.90;;;;;;5013237;28;19953;-81
2023/05/25 10:23:44;;;;;;;;;;;20.00;58.00;;;;;;5030365;28;20480;-81
2023/05/25 10:26:11;;;;;;;;;;;20.00;58.10;;;;;;5031403;28;20085;-82
2023/05/25 10:28:38;;;;;;;;;;;20.00;58.20;;;;;;5028426;28;19910;-82
2023/05/25 10:31:04;;;;;;;;;;;20.00;58.10;;;;;;5032272;28;20078;-82
2023/05/25 10:33:31;;;;;;;;;;;20.00;58.20;;;;;;5032243;28;19995;-81
2023/05/25 10:35:57;;;;;;;;;;;20.00;58.10;;;;;;5028831;28;19913;-81
2023/05/25 10:38:25;;;;;;;;;;;20.00;58.10;;;;;;5011594;28;19909;-82
2023/05/25 10:40:51;;;;;;;;;;;20.00;58.10;;;;;;5030035;28;20008;-82
2023/05/25 10:43:18;;;;;;;;;;;20.00;58.10;;;;;;5009693;28;20183;-81
2023/05/25 10:45:43;;;;;;;;;;;20.00;58.10;;;;;;5010017;28;20019;-81
2023/05/25 10:48:09;;;;;;;;;;;20.00;58.10;;;;;;5027971;28;20019;-82
2023/05/25 10:50:35;;;;;;;;;;;20.20;58.00;;;;;;5011828;28;19948;-82
2023/05/25 10:53:05;;;;;;;;;;;20.20;57.80;;;;;;5045278;28;20214;-81
2023/05/25 10:55:49;;;;;;;;;;;20.30;57.70;;;;;;5032780;28;20129;-82
2023/05/25 10:58:16;;;;;;;;;;;20.40;57.50;;;;;;5030853;28;19939;-81
2023/05/25 11:00:42;;;;;;;;;;;20.40;57.40;;;;;;5052272;28;19901;-82
2023/05/25 11:03:09;;;;;;;;;;;20.40;57.30;;;;;;5031603;28;20426;-82
2023/05/25 11:05:38;;;;;;;;;;;20.50;57.40;;;;;;5050073;28;19935;-81
2023/05/25 11:08:07;;;;;;;;;;;20.50;57.30;;;;;;5059297;28;19916;-81
2023/05/25 11:10:48;;;;;;;;;;;20.50;57.30;;;;;;5049978;28;20191;-81
2023/05/25 11:13:20;;;;;;;;;;;20.50;57.30;;;;;;5049948;28;20333;-81
2023/05/25 11:15:47;;;;;;;;;;;20.50;57.20;;;;;;5060739;28;20210;-82
2023/05/25 11:18:15;;;;;;;;;;;20.60;57.20;;;;;;5048019;28;19913;-82
2023/05/25 11:20:41;;;;;;;;;;;20.60;57.10;;;;;;5050333;28;19948;-82
2023/05/25 11:23:33;;;;;;;;;;;20.60;57.00;;;;;;5048950;28;19963;-82
2023/05/25 11:26:03;;;;;;;;;;;20.60;57.00;;;;;;5041869;28;20458;-81
2023/05/25 11:28:31;;;;;;;;;;;20.50;57.10;;;;;;5045808;28;20007;-81
2023/05/25 11:30:56;;;;;;;;;;;20.50;57.20;;;;;;5066950;28;20007;-81
2023/05/25 11:33:22;;;;;;;;;;;20.50;57.20;;;;;;5064777;28;20011;-81
2023/05/25 11:35:50;;;;;;;;;;;20.50;57.30;;;;;;5051665;28;19915;-81
2023/05/25 11:38:15;;;;;;;;;;;20.60;57.20;;;;;;5050489;28;19909;-81
2023/05/25 11:40:41;;;;;;;;;;;20.70;57.10;;;;;;5050253;28;19939;-82
2023/05/25 11:43:07;;;;;;;;;;;20.70;57.00;;;;;;5031009;28;20074;-82
2023/05/25 11:45:32;;;;;;;;;;;20.70;56.90;;;;;;5030832;28;19915;-82
2023/05/25 11:47:58;;;;;;;;;;;20.70;57.00;;;;;;5058373;28;19904;-81
2023/05/25 11:50:23;;;;;;;;;;;20.70;56.90;;;;;;5049124;28;19912;-82
2023/05/25 11:52:49;;;;;;;;;;;20.70;56.90;;;;;;5066055;28;20169;-81
2023/05/25 11:55:15;;;;;;;;;;;20.70;57.00;;;;;;5066668;28;20236;-82
2023/05/25 11:57:40;;;;;;;;;;;20.80;57.00;;;;;;5048975;28;20535;-82
2023/05/25 12:00:08;;;;;;;;;;;20.70;56.90;;;;;;5065637;28;20071;-82
2023/05/25 12:02:37;;;;;;;;;;;20.70;57.00;;;;;;5065424;28;19920;-82
2023/05/25 12:05:03;;;;;;;;;;;20.60;57.10;;;;;;5049378;28;20151;-81
2023/05/25 12:07:29;;;;;;;;;;;20.60;57.10;;;;;;5047316;28;19923;-82
2023/05/25 12:10:04;;;;;;;;;;;20.60;57.10;;;;;;5047135;28;20169;-83
2023/05/25 12:12:36;;;;;;;;;;;20.70;57.20;;;;;;5038492;28;20261;-81
2023/05/25 12:15:01;;;;;;;;;;;20.70;57.20;;;;;;5047220;28;19986;-81
2023/05/25 12:17:27;;;;;;;;;;;20.60;57.20;;;;;;5064993;28;19985;-82
2023/05/25 12:19:52;;;;;;;;;;;20.60;57.20;;;;;;5064017;28;20335;-81
2023/05/25 12:22:18;;;;;;;;;;;20.60;57.40;;;;;;5046846;28;19920;-82
2023/05/25 12:24:44;;;;;;;;;;;20.60;57.40;;;;;;5065669;28;19981;-81
2023/05/25 12:27:21;;;;;;;;;;;20.60;57.50;;;;;;5065027;28;19935;-82
2023/05/25 12:29:47;;;;;;;;;;;20.60;57.60;;;;;;5048191;28;19908;-81
2023/05/25 12:32:12;;;;;;;;;;;20.60;57.60;;;;;;5048195;28;19927;-81
2023/05/25 12:34:38;;;;;;;;;;;20.60;57.50;;;;;;5051414;28;20319;-81
2023/05/25 12:37:04;;;;;;;;;;;20.70;57.50;;;;;;5050929;28;19978;-82
2023/05/25 12:39:30;;;;;;;;;;;20.70;57.40;;;;;;5051179;28;19916;-82
2023/05/25 12:41:59;;;;;;;;;;;20.80;57.40;;;;;;5049681;28;20174;-82
2023/05/25 12:44:31;;;;;;;;;;;20.80;57.40;;;;;;5049572;28;20384;-81
2023/05/25 12:47:21;;;;;;;;;;;20.80;57.40;;;;;;5051065;28;20017;-81
2023/05/25 12:49:50;;;;;;;;;;;20.80;57.40;;;;;;5049584;28;20145;-82
2023/05/25 12:52:32;;;;;;;;;;;20.70;57.50;;;;;;5064724;28;19912;-81
2023/05/25 12:55:17;;;;;;;;;;;20.70;57.50;;;;;;5051471;28;19908;-81
2023/05/25 12:57:43;;;;;;;;;;;20.70;57.50;;;;;;5050174;28;19974;-82
2023/05/25 13:00:08;;;;;;;;;;;20.70;57.60;;;;;;5048068;28;19916;-81
2023/05/25 13:02:34;;;;;;;;;;;20.70;57.70;;;;;;5048811;28;19951;-81
2023/05/25 13:05:00;;;;;;;;;;;20.70;57.70;;;;;;5048149;28;19908;-82
2023/05/25 13:07:26;;;;;;;;;;;20.60;57.70;;;;;;5049220;28;19916;-82
2023/05/25 13:09:52;;;;;;;;;;;20.60;57.80;;;;;;5065600;28;19919;-81
2023/05/25 13:12:19;;;;;;;;;;;20.60;57.80;;;;;;5063922;28;19913;-82
2023/05/25 13:14:44;;;;;;;;;;;20.70;57.90;;;;;;5047407;28;20297;-81
2023/05/25 13:17:10;;;;;;;;;;;20.70;58.20;;;;;;5045562;28;19908;-81
2023/05/25 13:19:35;;;;;;;;;;;20.60;57.90;;;;;;5045041;28;20011;-81
2023/05/25 13:22:01;;;;;;;;;;;20.60;57.90;;;;;;5064048;28;19995;-81
2023/05/25 13:24:27;;;;;;;;;;;20.60;57.90;;;;;;5047475;28;19959;-82
2023/05/25 13:26:52;;;;;;;;;;;20.60;57.90;;;;;;5065165;28;19909;-82
2023/05/25 13:29:18;;;;;;;;;;;20.60;57.90;;;;;;5049245;28;19909;-82
2023/05/25 13:31:44;;;;;;;;;;;20.60;57.90;;;;;;5045628;28;20387;-81
2023/05/25 13:34:09;;;;;;;;;;;20.60;57.90;;;;;;5045784;28;20155;-81
2023/05/25 13:36:35;;;;;;;;;;;20.70;57.90;;;;;;5066762;28;20010;-82
2023/05/25 13:39:03;;;;;;;;;;;20.70;58.00;;;;;;5047304;28;19979;-82
2023/05/25 13:41:29;;;;;;;;;;;20.70;58.00;;;;;;5047380;28;19916;-82
2023/05/25 13:43:55;;;;;;;;;;;20.70;58.20;;;;;;5045003;28;20388;-82
2023/05/25 13:46:20;;;;;;;;;;;20.70;58.00;;;;;;5043313;28;19947;-82
2023/05/25 13:48:47;;;;;;;;;;;20.70;58.00;;;;;;5061903;28;19930;-82
2023/05/25 13:51:14;;;;;;;;;;;20.70;58.00;;;;;;5049943;28;19999;-82
2023/05/25 13:53:39;;;;;;;;;;;20.70;58.00;;;;;;5067675;28;19943;-82
2023/05/25 13:56:05;;;;;;;;;;;20.70;58.00;;;;;;5048903;28;20279;-82
2023/05/25 13:58:31;;;;;;;;;;;20.70;58.00;;;;;;5043563;28;19995;-82
2023/05/25 14:00:56;;;;;;;;;;;20.80;58.00;;;;;;5044482;28;19972;-82
2023/05/25 14:03:22;;;;;;;;;;;20.80;57.90;;;;;;5059873;28;19946;-81
2023/05/25 14:05:48;;;;;;;;;;;20.80;57.80;;;;;;5044696;28;19965;-81
2023/05/25 14:08:14;;;;;;;;;;;20.80;57.80;;;;;;5038943;28;19928;-82
2023/05/25 14:10:41;;;;;;;;;;;20.80;57.80;;;;;;5025508;28;19924;-82
2023/05/25 14:13:07;;;;;;;;;;;20.80;57.80;;;;;;5042898;28;19928;-81